createdAt,value
2019-05-21T00:02:07.708Z,164.32
2019-05-21T00:04:34.714Z,161.57
2019-05-21T00:07:02.231Z,160.60
2019-05-21T00:09:30.284Z,163.28
2019-05-21T00:11:57.319Z,162.55
2019-05-21T00:14:24.440Z,154.42
2019-05-21T00:16:51.836Z,151.90
2019-05-21T00:19:19.669Z,157.37
2019-05-21T00:21:46.675Z,164.82
2019-05-21T00:24:15.035Z,156.65
2019-05-21T00:26:42.223Z,162.07
2019-05-21T00:29:46.083Z,159.93
2019-05-21T00:32:49.906Z,161.15
2019-05-21T00:35:53.972Z,161.75
2019-05-21T00:38:58.041Z,157.95
2019-05-21T00:42:03.836Z,147.57
2019-05-21T00:44:34.505Z,156.18
2019-05-21T00:47:02.506Z,152.32
2019-05-21T00:49:29.556Z,149.02
2019-05-21T00:52:06.880Z,155.82
2019-05-21T00:54:25.480Z,159.37
2019-05-21T00:56:52.603Z,152.93
2019-05-21T00:59:19.893Z,153.40
2019-05-21T01:01:46.958Z,148.00
2019-05-21T01:04:14.013Z,157.12
2019-05-21T01:06:41.131Z,155.63
2019-05-21T01:09:08.146Z,154.07
2019-05-21T01:11:35.267Z,149.38
2019-05-21T01:14:02.428Z,153.00
2019-05-21T01:16:29.427Z,149.57
2019-05-21T01:18:56.516Z,152.05
2019-05-21T01:21:23.490Z,151.35
2019-05-21T01:23:50.489Z,148.47
2019-05-21T01:26:18.576Z,151.68
2019-05-21T01:28:45.618Z,150.00
2019-05-21T01:31:12.664Z,151.02
2019-05-21T01:33:39.727Z,149.77
2019-05-21T01:36:06.687Z,150.45
2019-05-21T01:38:33.680Z,150.75
2019-05-21T01:41:00.743Z,146.68
2019-05-21T01:43:28.055Z,147.40
2019-05-21T01:45:55.087Z,148.75
2019-05-21T01:48:22.092Z,150.22
2019-05-21T01:50:49.354Z,150.00
2019-05-21T01:53:16.437Z,149.65
2019-05-21T01:55:43.546Z,147.75
2019-05-21T01:58:11.799Z,147.65
2019-05-21T02:00:38.861Z,146.95
2019-05-21T02:03:05.847Z,146.35
2019-05-21T02:05:33.657Z,146.32
2019-05-21T02:08:00.789Z,146.05
2019-05-21T02:10:27.827Z,147.22
2019-05-21T02:12:54.813Z,145.77
2019-05-21T02:15:21.799Z,144.57
2019-05-21T02:17:48.846Z,145.07
2019-05-21T02:20:15.864Z,140.90
2019-05-21T02:22:42.953Z,143.43
2019-05-21T02:25:10.021Z,142.70
2019-05-21T02:27:37.046Z,142.82
2019-05-21T02:30:06.345Z,142.13
2019-05-21T02:32:34.140Z,141.70
2019-05-21T02:35:02.042Z,140.65
2019-05-21T02:37:29.122Z,141.65
2019-05-21T02:39:56.281Z,141.80
2019-05-21T02:42:23.294Z,140.10
2019-05-21T02:44:54.176Z,142.53
2019-05-21T02:47:20.551Z,142.45
2019-05-21T02:49:47.524Z,142.25
2019-05-21T02:52:14.525Z,142.22
2019-05-21T02:54:42.098Z,141.45
2019-05-21T02:57:09.225Z,140.95
2019-05-21T02:59:36.952Z,141.53
2019-05-21T03:02:13.392Z,141.50
2019-05-21T03:04:40.454Z,141.32
2019-05-21T03:07:19.635Z,139.95
2019-05-21T03:09:49.624Z,139.35
2019-05-21T03:12:16.806Z,142.75
2019-05-21T03:14:44.540Z,140.10
2019-05-21T03:17:11.544Z,141.30
2019-05-21T03:19:38.564Z,141.43
2019-05-21T03:22:05.626Z,141.28
2019-05-21T03:24:32.705Z,140.15
2019-05-21T03:26:59.703Z,139.50
2019-05-21T03:29:26.767Z,139.80
2019-05-21T03:31:53.773Z,140.90
2019-05-21T03:34:20.810Z,141.60
2019-05-21T03:36:47.921Z,140.85
2019-05-21T03:39:19.122Z,141.15
2019-05-21T03:41:43.855Z,141.20
2019-05-21T03:44:10.900Z,139.97
2019-05-21T03:46:37.988Z,142.40
2019-05-21T03:49:05.028Z,140.85
2019-05-21T03:51:32.249Z,140.37
2019-05-21T03:53:59.278Z,143.93
2019-05-21T03:56:26.272Z,141.73
2019-05-21T03:58:53.379Z,142.05
2019-05-21T04:01:20.460Z,140.88
2019-05-21T04:03:47.477Z,139.85
2019-05-21T04:06:15.296Z,142.32
2019-05-21T04:08:42.359Z,139.20
2019-05-21T04:11:09.426Z,138.72
2019-05-21T04:13:36.504Z,139.88
2019-05-21T04:16:13.188Z,139.07
2019-05-21T04:19:02.013Z,139.03
2019-05-21T04:21:29.015Z,139.20
2019-05-21T04:23:56.047Z,139.85
2019-05-21T04:26:23.161Z,140.52
2019-05-21T04:28:50.202Z,140.80
2019-05-21T04:31:17.199Z,139.60
2019-05-21T04:33:44.505Z,138.77
2019-05-21T04:36:11.572Z,137.37
2019-05-21T04:38:38.633Z,139.15
2019-05-21T04:41:05.748Z,138.80
2019-05-21T04:43:32.804Z,138.47
2019-05-21T04:45:59.910Z,137.75
2019-05-21T04:48:27.102Z,137.70
2019-05-21T04:50:54.169Z,137.40
2019-05-21T04:53:21.131Z,137.12
2019-05-21T04:55:48.344Z,140.85
2019-05-21T04:58:15.528Z,137.70
2019-05-21T05:00:42.751Z,137.22
2019-05-21T05:03:11.269Z,137.22
2019-05-21T05:05:38.314Z,137.37
2019-05-21T05:08:05.381Z,138.10
2019-05-21T05:10:32.602Z,137.43
2019-05-21T05:12:59.699Z,137.55
2019-05-21T05:15:26.750Z,137.50
2019-05-21T05:17:53.870Z,137.92
2019-05-21T05:20:20.881Z,135.55
2019-05-21T05:22:47.932Z,136.90
2019-05-21T05:25:14.996Z,137.97
2019-05-21T05:27:42.040Z,137.03
2019-05-21T05:30:10.037Z,137.00
2019-05-21T05:32:37.066Z,137.05
2019-05-21T05:35:04.313Z,137.97
2019-05-21T05:37:43.332Z,136.52
2019-05-21T05:40:00.281Z,137.25
2019-05-21T05:42:27.296Z,137.80
2019-05-21T05:44:54.367Z,138.65
2019-05-21T05:47:21.523Z,137.40
2019-05-21T05:49:51.370Z,137.28
2019-05-21T05:52:18.446Z,138.55
2019-05-21T05:54:45.480Z,137.07
2019-05-21T05:57:12.641Z,137.85
2019-05-21T05:59:39.813Z,138.32
2019-05-21T06:02:06.803Z,137.25
2019-05-21T06:04:33.787Z,137.40
2019-05-21T06:07:00.809Z,137.57
2019-05-21T06:09:27.879Z,135.93
2019-05-21T06:11:54.977Z,138.00
2019-05-21T06:14:22.010Z,136.30
2019-05-21T06:16:49.119Z,137.00
2019-05-21T06:19:16.172Z,137.95
2019-05-21T06:21:43.223Z,137.05
2019-05-21T06:24:13.460Z,136.68
2019-05-21T06:26:39.495Z,137.35
2019-05-21T06:29:06.520Z,138.50
2019-05-21T06:31:34.408Z,138.60
2019-05-21T06:34:01.628Z,137.77
2019-05-21T06:36:31.581Z,137.37
2019-05-21T06:38:59.616Z,136.10
2019-05-21T06:41:26.611Z,137.15
2019-05-21T06:43:53.789Z,136.00
2019-05-21T06:46:20.899Z,136.28
2019-05-21T06:48:48.027Z,137.25
2019-05-21T06:51:15.057Z,137.15
2019-05-21T06:53:42.175Z,137.92
2019-05-21T06:56:09.157Z,137.92
2019-05-21T06:58:37.953Z,137.37
2019-05-21T07:01:05.003Z,137.88
2019-05-21T07:03:32.015Z,139.18
2019-05-21T07:05:59.630Z,138.37
2019-05-21T07:08:34.451Z,139.25
2019-05-21T07:10:55.642Z,137.00
2019-05-21T07:13:22.654Z,137.77
2019-05-21T07:15:49.673Z,138.95
2019-05-21T07:18:16.687Z,137.82
2019-05-21T07:20:43.798Z,137.12
2019-05-21T07:23:10.876Z,139.32
2019-05-21T07:25:39.958Z,138.00
2019-05-21T07:28:06.961Z,138.65
2019-05-21T07:30:34.218Z,138.52
2019-05-21T07:33:01.473Z,137.92
2019-05-21T07:35:28.767Z,139.32
2019-05-21T07:37:55.855Z,138.62
2019-05-21T07:40:24.187Z,137.92
2019-05-21T07:42:51.238Z,138.47
2019-05-21T07:45:19.221Z,137.90
2019-05-21T07:47:46.259Z,137.52
2019-05-21T07:50:13.428Z,138.05
2019-05-21T07:52:40.713Z,138.85
2019-05-21T07:55:07.920Z,138.95
2019-05-21T07:57:44.411Z,138.30
2019-05-21T08:00:35.154Z,137.45
2019-05-21T08:03:02.412Z,138.65
2019-05-21T08:05:29.651Z,139.85
2019-05-21T08:07:57.410Z,139.72
2019-05-21T08:10:24.728Z,140.10
2019-05-21T08:12:52.040Z,138.22
2019-05-21T08:15:19.355Z,139.92
2019-05-21T08:17:46.825Z,138.60
2019-05-21T08:20:14.524Z,138.22
2019-05-21T08:22:41.772Z,138.70
2019-05-21T08:25:09.198Z,139.30
2019-05-21T08:27:36.388Z,138.88
2019-05-21T08:30:05.080Z,137.80
2019-05-21T08:32:32.667Z,136.72
2019-05-21T08:34:59.915Z,137.55
2019-05-21T08:37:27.129Z,137.37
2019-05-21T08:39:54.394Z,137.37
2019-05-21T08:42:21.681Z,137.60
2019-05-21T08:44:48.937Z,137.37
2019-05-21T08:47:16.413Z,138.77
2019-05-21T08:49:44.360Z,137.82
2019-05-21T08:52:12.020Z,138.00
2019-05-21T08:54:51.495Z,139.68
2019-05-21T08:57:19.071Z,138.68
2019-05-21T08:59:46.615Z,138.35
2019-05-21T09:02:13.940Z,138.45
2019-05-21T09:04:46.281Z,138.85
2019-05-21T09:07:11.020Z,138.52
2019-05-21T09:09:49.952Z,138.77
2019-05-21T09:12:09.230Z,138.00
2019-05-21T09:14:36.939Z,138.07
2019-05-21T09:17:04.314Z,139.12
2019-05-21T09:19:36.627Z,138.90
2019-05-21T09:22:04.131Z,138.35
2019-05-21T09:24:31.755Z,138.20
2019-05-21T09:26:59.677Z,138.47
2019-05-21T09:29:27.009Z,138.22
2019-05-21T09:31:55.312Z,139.07
2019-05-21T09:34:22.538Z,138.35
2019-05-21T09:36:49.889Z,140.40
2019-05-21T09:39:17.177Z,138.03
2019-05-21T09:41:44.440Z,138.47
2019-05-21T09:44:11.779Z,138.30
2019-05-21T09:46:39.111Z,139.68
2019-05-21T09:49:06.595Z,138.90
2019-05-21T09:51:34.196Z,139.40
2019-05-21T09:54:02.574Z,138.18
2019-05-21T09:56:33.207Z,139.45
2019-05-21T09:59:09.712Z,138.50
2019-05-21T10:01:47.469Z,137.60
2019-05-21T10:04:12.079Z,138.37
2019-05-21T10:06:39.415Z,138.60
2019-05-21T10:09:11.443Z,137.82
2019-05-21T10:11:38.673Z,139.32
2019-05-21T10:14:06.120Z,137.80
2019-05-21T10:16:33.563Z,139.07
2019-05-21T10:19:00.841Z,138.60
2019-05-21T10:21:29.090Z,139.47
2019-05-21T10:23:56.348Z,138.50
2019-05-21T10:26:23.786Z,138.22
2019-05-21T10:28:54.087Z,138.45
2019-05-21T10:31:21.395Z,140.28
2019-05-21T10:33:48.696Z,138.70
2019-05-21T10:36:15.986Z,138.85
2019-05-21T10:38:43.274Z,138.68
2019-05-21T10:41:10.801Z,138.65
2019-05-21T10:43:38.202Z,139.35
2019-05-21T10:46:05.969Z,139.55
2019-05-21T10:48:33.452Z,139.88
2019-05-21T10:51:00.715Z,140.25
2019-05-21T10:53:28.349Z,140.95
2019-05-21T10:55:55.844Z,138.97
2019-05-21T10:58:23.152Z,137.90
2019-05-21T11:00:52.707Z,138.95
2019-05-21T11:03:39.629Z,139.45
2019-05-21T11:06:10.525Z,138.45
2019-05-21T11:08:42.314Z,138.32
2019-05-21T11:11:09.668Z,139.52
2019-05-21T11:13:37.254Z,139.32
2019-05-21T11:16:08.670Z,139.95
2019-05-21T11:18:36.301Z,139.62
2019-05-21T11:21:03.741Z,139.45
2019-05-21T11:23:32.079Z,140.03
2019-05-21T11:25:59.300Z,140.05
2019-05-21T11:28:28.109Z,139.90
2019-05-21T11:30:55.525Z,139.55
2019-05-21T11:33:23.064Z,140.77
2019-05-21T11:35:50.406Z,140.28
2019-05-21T11:38:17.770Z,139.28
2019-05-21T11:40:50.571Z,139.50
2019-05-21T11:43:14.393Z,140.12
2019-05-21T11:45:41.881Z,138.15
2019-05-21T11:48:09.714Z,139.52
2019-05-21T11:50:37.291Z,140.20
2019-05-21T11:53:04.627Z,138.52
2019-05-21T11:55:32.696Z,140.52
2019-05-21T11:57:59.988Z,137.77
2019-05-21T12:00:28.886Z,138.80
2019-05-21T12:02:56.414Z,140.80
2019-05-21T12:05:24.699Z,140.52
2019-05-21T12:07:53.147Z,140.18
2019-05-21T12:10:22.263Z,140.55
2019-05-21T12:12:49.905Z,140.10
2019-05-21T12:15:18.303Z,140.45
2019-05-21T12:17:46.087Z,140.28
2019-05-21T12:20:15.500Z,140.92
2019-05-21T12:22:43.741Z,142.82
2019-05-21T12:25:14.292Z,140.35
2019-05-21T12:27:45.448Z,140.85
2019-05-21T12:30:14.842Z,139.92
2019-05-21T12:32:47.170Z,139.70
2019-05-21T12:35:18.866Z,140.50
2019-05-21T12:37:46.963Z,141.12
2019-05-21T12:40:16.172Z,141.05
2019-05-21T12:42:43.530Z,139.00
2019-05-21T12:45:12.461Z,139.20
2019-05-21T12:47:39.904Z,138.97
2019-05-21T12:50:08.764Z,140.32
2019-05-21T12:52:36.126Z,141.62
2019-05-21T12:55:04.062Z,140.95
2019-05-21T12:57:31.482Z,141.75
2019-05-21T13:00:02.254Z,142.62
2019-05-21T13:02:31.180Z,141.88
2019-05-21T13:04:58.454Z,143.65
2019-05-21T13:07:26.902Z,141.82
2019-05-21T13:09:54.242Z,143.10
2019-05-21T13:12:21.560Z,143.60
2019-05-21T13:14:49.987Z,143.85
2019-05-21T13:17:19.613Z,141.57
2019-05-21T13:19:46.943Z,141.35
2019-05-21T13:22:14.244Z,140.85
2019-05-21T13:24:42.573Z,142.90
2019-05-21T13:27:10.741Z,143.35
2019-05-21T13:29:38.121Z,142.18
2019-05-21T13:32:08.576Z,143.47
2019-05-21T13:34:35.777Z,143.37
2019-05-21T13:37:03.319Z,143.17
2019-05-21T13:39:30.629Z,145.68
2019-05-21T13:41:58.054Z,144.57
2019-05-21T13:44:25.406Z,144.57
2019-05-21T13:46:52.629Z,142.95
2019-05-21T13:49:19.991Z,142.40
2019-05-21T13:51:47.807Z,143.52
2019-05-21T13:54:15.062Z,142.13
2019-05-21T13:56:43.485Z,142.22
2019-05-21T13:59:12.643Z,141.90
2019-05-21T14:01:54.665Z,145.87
2019-05-21T14:04:25.967Z,143.37
2019-05-21T14:06:54.945Z,141.68
2019-05-21T14:09:22.785Z,141.18
2019-05-21T14:11:52.995Z,141.82
2019-05-21T14:14:23.180Z,141.10
2019-05-21T14:16:58.098Z,140.55
2019-05-21T14:19:28.968Z,144.00
2019-05-21T14:22:00.429Z,142.20
2019-05-21T14:24:44.221Z,142.45
2019-05-21T14:27:12.695Z,139.90
2019-05-21T14:29:40.103Z,142.37
2019-05-21T14:32:07.314Z,143.45
2019-05-21T14:35:01.161Z,144.07
2019-05-21T14:37:24.807Z,145.92
2019-05-21T14:39:53.446Z,144.35
2019-05-21T14:42:24.721Z,144.07
2019-05-21T14:45:00.342Z,151.45
2019-05-21T14:47:31.914Z,145.10
2019-05-21T14:50:23.694Z,144.10
2019-05-21T14:52:52.517Z,145.02
2019-05-21T14:55:24.813Z,147.07
2019-05-21T14:58:03.539Z,147.87
2019-05-21T15:00:38.618Z,144.32
2019-05-21T15:03:29.385Z,148.68
2019-05-21T15:05:58.685Z,146.02
2019-05-21T15:08:28.365Z,145.85
2019-05-21T15:10:56.404Z,147.53
2019-05-21T15:13:24.733Z,145.77
2019-05-21T15:15:52.924Z,144.97
2019-05-21T15:18:24.024Z,143.37
2019-05-21T15:21:01.100Z,144.20
2019-05-21T15:23:40.696Z,144.95
2019-05-21T15:26:10.446Z,142.87
2019-05-21T15:28:52.436Z,142.45
2019-05-21T15:35:10.054Z,142.90
2019-05-21T15:37:37.334Z,145.38
2019-05-21T15:40:05.094Z,143.65
2019-05-21T15:42:33.916Z,140.85
2019-05-21T15:45:01.659Z,146.95
2019-05-21T15:47:29.521Z,143.70
2019-05-21T15:49:56.734Z,142.77
2019-05-21T15:52:27.004Z,142.07
2019-05-21T15:54:58.717Z,140.50
2019-05-21T15:57:26.527Z,142.25
2019-05-21T15:59:55.482Z,141.57
2019-05-21T16:02:54.003Z,144.00
2019-05-21T16:05:22.881Z,140.57
2019-05-21T16:07:50.105Z,143.43
2019-05-21T16:10:21.711Z,143.00
2019-05-21T16:12:57.090Z,143.17
2019-05-21T16:15:25.948Z,145.77
2019-05-21T16:17:55.269Z,143.57
2019-05-21T16:20:22.465Z,147.95
2019-05-21T16:22:49.949Z,144.97
2019-05-21T16:25:17.181Z,144.20
2019-05-21T16:27:48.289Z,143.97
2019-05-21T16:30:15.697Z,142.70
2019-05-21T16:32:42.961Z,142.75
2019-05-21T16:35:10.913Z,143.95
2019-05-21T16:37:39.843Z,143.25
2019-05-21T16:40:10.045Z,142.50
2019-05-21T16:42:37.376Z,145.35
2019-05-21T16:45:08.213Z,144.35
2019-05-21T16:48:34.390Z,145.70
2019-05-21T16:51:01.688Z,143.37
2019-05-21T16:53:29.352Z,143.97
2019-05-21T16:55:57.530Z,143.15
2019-05-21T16:58:24.849Z,143.55
2019-05-21T17:00:52.503Z,143.25
2019-05-21T17:03:22.416Z,146.15
2019-05-21T17:05:51.050Z,143.60
2019-05-21T17:08:18.211Z,143.60
2019-05-21T17:10:45.302Z,144.53
2019-05-21T17:13:15.009Z,143.65
2019-05-21T17:15:44.145Z,144.97
2019-05-21T17:18:14.871Z,144.95
2019-05-21T17:20:48.651Z,147.28
2019-05-21T17:23:18.395Z,144.32
2019-05-21T17:25:50.064Z,144.75
2019-05-21T17:28:20.443Z,141.90
2019-05-21T17:30:51.827Z,144.43
2019-05-21T17:33:22.006Z,144.62
2019-05-21T17:35:52.295Z,143.82
2019-05-21T17:38:24.485Z,144.45
2019-05-21T17:40:53.961Z,143.07
2019-05-21T17:43:21.248Z,145.50
2019-05-21T17:45:48.338Z,143.25
2019-05-21T17:48:15.499Z,145.70
2019-05-21T17:50:42.996Z,144.32
2019-05-21T17:53:13.259Z,143.78
2019-05-21T17:55:40.502Z,145.35
2019-05-21T17:58:09.063Z,145.45
2019-05-21T18:00:54.989Z,147.17
2019-05-21T18:03:39.564Z,144.28
2019-05-21T18:06:08.154Z,144.53
2019-05-21T18:08:41.174Z,144.87
2019-05-21T18:11:08.742Z,146.18
2019-05-21T18:13:41.728Z,147.07
2019-05-21T18:16:13.897Z,146.72
2019-05-21T18:18:45.566Z,145.60
2019-05-21T18:21:13.711Z,145.02
2019-05-21T18:23:45.449Z,145.82
2019-05-21T18:26:23.727Z,146.95
2019-05-21T18:28:54.051Z,147.05
2019-05-21T18:31:23.659Z,145.02
2019-05-21T18:33:56.692Z,143.13
2019-05-21T18:36:31.563Z,146.30
2019-05-21T18:38:58.837Z,144.25
2019-05-21T18:41:30.730Z,144.80
2019-05-21T18:43:59.070Z,145.68
2019-05-21T18:46:27.299Z,145.65
2019-05-21T18:48:54.549Z,143.37
2019-05-21T18:51:22.558Z,144.77
2019-05-21T18:53:49.879Z,146.02
2019-05-21T18:56:17.251Z,146.13
2019-05-21T18:58:44.788Z,146.10
2019-05-21T19:01:14.868Z,147.32
2019-05-21T19:03:42.224Z,148.05
2019-05-21T19:06:11.760Z,147.98
2019-05-21T19:08:42.070Z,145.62
2019-05-21T19:11:32.883Z,147.98
2019-05-21T19:14:08.976Z,146.50
2019-05-21T19:16:40.321Z,147.28
2019-05-21T19:19:09.290Z,148.53
2019-05-21T19:21:39.615Z,146.82
2019-05-21T19:24:07.298Z,147.43
2019-05-21T19:26:40.148Z,145.35
2019-05-21T19:29:11.582Z,148.87
2019-05-21T19:31:38.665Z,148.17
2019-05-21T19:34:05.933Z,146.05
2019-05-21T19:36:33.072Z,147.85
2019-05-21T19:39:00.846Z,147.13
2019-05-21T19:41:33.087Z,146.95
2019-05-21T19:44:02.603Z,146.85
2019-05-21T19:46:51.195Z,149.20
2019-05-21T19:49:33.105Z,148.57
2019-05-21T19:52:05.937Z,147.17
2019-05-21T19:54:50.171Z,150.10
2019-05-21T19:57:24.519Z,148.85
2019-05-21T19:59:59.519Z,149.62
2019-05-21T20:02:40.657Z,156.67
2019-05-21T20:05:14.541Z,150.93
2019-05-21T20:07:43.360Z,149.12
2019-05-21T20:10:13.601Z,148.65
2019-05-21T20:12:41.718Z,148.20
2019-05-21T20:15:11.368Z,147.35
2019-05-21T20:17:40.294Z,147.87
2019-05-21T20:20:09.559Z,148.85
2019-05-21T20:22:37.658Z,152.07
2019-05-21T20:25:05.379Z,149.80
2019-05-21T20:27:32.598Z,148.10
2019-05-21T20:30:12.161Z,149.85
2019-05-21T20:32:35.955Z,149.62
2019-05-21T20:35:06.520Z,149.27
2019-05-21T20:37:38.563Z,150.03
2019-05-21T20:40:08.634Z,150.40
2019-05-21T20:42:37.350Z,147.57
2019-05-21T20:45:06.944Z,149.15
2019-05-21T20:47:34.506Z,148.78
2019-05-21T20:50:05.333Z,150.45
2019-05-21T20:52:35.345Z,147.00
2019-05-21T20:55:02.940Z,150.38
2019-05-21T20:57:31.662Z,148.90
2019-05-21T20:59:58.826Z,149.85
2019-05-21T21:02:27.567Z,148.13
2019-05-21T21:08:06.195Z,147.80
2019-05-21T21:10:33.257Z,150.55
2019-05-21T21:13:01.024Z,148.22
2019-05-21T21:15:28.293Z,149.27
2019-05-21T21:17:55.451Z,149.38
2019-05-21T21:20:22.614Z,149.02
2019-05-21T21:22:49.843Z,148.45
2019-05-21T21:25:21.018Z,148.85
2019-05-21T21:27:48.433Z,149.60
2019-05-21T21:30:15.690Z,148.40
2019-05-21T21:32:43.630Z,148.80
2019-05-21T21:35:11.746Z,149.40
2019-05-21T21:37:38.848Z,148.78
2019-05-21T21:40:08.902Z,150.22
2019-05-21T21:42:36.162Z,150.30
2019-05-21T21:45:03.617Z,149.65
2019-05-21T21:47:31.193Z,150.68
2019-05-21T21:49:58.856Z,151.42
2019-05-21T21:52:29.895Z,149.15
2019-05-21T21:54:59.203Z,147.98
2019-05-21T21:57:26.524Z,150.18
2019-05-21T21:59:55.571Z,150.15
2019-05-21T22:02:30.205Z,149.25
2019-05-21T22:04:58.103Z,149.65
2019-05-21T22:07:26.927Z,147.85
2019-05-21T22:09:54.961Z,148.72
2019-05-21T22:12:24.487Z,149.55
2019-05-21T22:14:58.205Z,148.87
2019-05-21T22:17:25.420Z,149.42
2019-05-21T22:19:52.737Z,149.57
2019-05-21T22:22:20.231Z,150.25
2019-05-21T22:24:48.775Z,149.10
2019-05-21T22:27:18.597Z,150.40
2019-05-21T22:29:46.887Z,151.00
2019-05-21T22:32:16.658Z,150.65
2019-05-21T22:34:42.968Z,150.72
2019-05-21T22:37:14.543Z,150.55
2019-05-21T22:39:43.731Z,150.32
2019-05-21T22:42:13.438Z,151.10
2019-05-21T22:44:43.413Z,151.05
2019-05-21T22:47:11.657Z,151.37
2019-05-21T22:49:38.801Z,152.40
2019-05-21T22:52:06.270Z,152.02
2019-05-21T22:54:33.423Z,151.68
2019-05-21T22:57:00.674Z,150.95
2019-05-21T22:59:27.806Z,153.23
2019-05-21T23:01:57.447Z,152.60
2019-05-21T23:04:24.681Z,152.97
2019-05-21T23:06:54.101Z,153.00
2019-05-21T23:09:21.552Z,153.23
2019-05-21T23:11:48.843Z,153.53
2019-05-21T23:14:15.973Z,153.57
2019-05-21T23:16:49.897Z,152.93
2019-05-21T23:19:24.240Z,154.45
2019-05-21T23:21:57.546Z,154.30
2019-05-21T23:24:25.364Z,153.60
2019-05-21T23:26:53.088Z,153.45
2019-05-21T23:29:20.558Z,152.93
2019-05-21T23:31:48.850Z,152.97
2019-05-21T23:34:17.929Z,152.80
2019-05-21T23:36:47.033Z,150.78
2019-05-21T23:39:20.509Z,150.87
2019-05-21T23:41:48.213Z,151.18
2019-05-21T23:44:16.233Z,150.97
2019-05-21T23:46:43.882Z,151.55
2019-05-21T23:49:12.124Z,151.25
2019-05-21T23:51:39.423Z,151.53
2019-05-21T23:54:06.889Z,150.00
2019-05-21T23:56:34.043Z,149.18
2019-05-21T23:59:01.300Z,148.28
